Terminal Aerodrome Forecast
Issued by NWS Grand Forks, ND

Home | Current Version | Previous Version | Graphics & Text | Print | Product List | Glossary On
Versions: 1 2 3 4 5 6 7 8 9 10 11 12 13 14 15 16 17
000
FTUS43 KFGF 191606 AAA
TAFGFK
TAF AMD
KGFK 191606Z 1916/2012 14016KT 4SM BR OVC004
     FM191800 14020G30KT P6SM OVC015
     FM192000 15023G34KT P6SM BKN045
     FM200000 15024G36KT P6SM +TSRA OVC040CB
     FM200600 20013KT P6SM VCSH OVC040=

USA.gov is the U.S. government's official web portal to all federal, state and local government web resources and services.